sensor_id;sensor_type;location;lat;lon;timestamp;P1;durP1;ratioP1;P2;durP2;ratioP2
46589;SDS011;32313;48.722;9.362;2024-02-04T00:00:29;3.60;;;3.40;;
46589;SDS011;32313;48.722;9.362;2024-02-04T00:02:55;3.83;;;3.63;;
46589;SDS011;32313;48.722;9.362;2024-02-04T00:05:20;3.90;;;3.70;;
46589;SDS011;32313;48.722;9.362;2024-02-04T00:07:46;3.90;;;3.67;;
46589;SDS011;32313;48.722;9.362;2024-02-04T00:10:12;4.10;;;3.90;;
46589;SDS011;32313;48.722;9.362;2024-02-04T00:12:40;3.87;;;3.67;;
46589;SDS011;32313;48.722;9.362;2024-02-04T00:15:06;4.00;;;3.80;;
46589;SDS011;32313;48.722;9.362;2024-02-04T00:17:32;3.60;;;3.40;;
46589;SDS011;32313;48.722;9.362;2024-02-04T00:19:59;4.40;;;4.20;;
46589;SDS011;32313;48.722;9.362;2024-02-04T00:22:26;3.73;;;3.53;;
46589;SDS011;32313;48.722;9.362;2024-02-04T00:24:54;3.83;;;3.63;;
46589;SDS011;32313;48.722;9.362;2024-02-04T00:27:26;4.30;;;4.10;;
46589;SDS011;32313;48.722;9.362;2024-02-04T00:29:52;3.50;;;3.30;;
46589;SDS011;32313;48.722;9.362;2024-02-04T00:32:18;3.87;;;3.67;;
46589;SDS011;32313;48.722;9.362;2024-02-04T00:34:44;3.63;;;3.43;;
46589;SDS011;32313;48.722;9.362;2024-02-04T00:37:09;3.90;;;3.60;;
46589;SDS011;32313;48.722;9.362;2024-02-04T00:39:35;3.87;;;3.67;;
46589;SDS011;32313;48.722;9.362;2024-02-04T00:42:01;3.97;;;3.67;;
46589;SDS011;32313;48.722;9.362;2024-02-04T00:44:27;4.20;;;4.00;;
46589;SDS011;32313;48.722;9.362;2024-02-04T00:46:52;3.70;;;3.50;;
46589;SDS011;32313;48.722;9.362;2024-02-04T00:49:18;4.27;;;4.07;;
46589;SDS011;32313;48.722;9.362;2024-02-04T00:51:44;3.90;;;3.70;;
46589;SDS011;32313;48.722;9.362;2024-02-04T00:54:09;4.00;;;3.80;;
46589;SDS011;32313;48.722;9.362;2024-02-04T00:56:35;4.07;;;3.87;;
46589;SDS011;32313;48.722;9.362;2024-02-04T00:59:03;3.93;;;3.70;;
46589;SDS011;32313;48.722;9.362;2024-02-04T01:01:28;4.33;;;4.13;;
46589;SDS011;32313;48.722;9.362;2024-02-04T01:03:54;4.77;;;4.47;;
46589;SDS011;32313;48.722;9.362;2024-02-04T01:06:20;4.27;;;4.00;;
46589;SDS011;32313;48.722;9.362;2024-02-04T01:08:45;4.00;;;3.80;;
46589;SDS011;32313;48.722;9.362;2024-02-04T01:11:11;4.17;;;3.97;;
46589;SDS011;32313;48.722;9.362;2024-02-04T01:13:37;4.00;;;3.80;;
46589;SDS011;32313;48.722;9.362;2024-02-04T01:16:03;4.50;;;4.10;;
46589;SDS011;32313;48.722;9.362;2024-02-04T01:18:28;4.30;;;4.03;;
46589;SDS011;32313;48.722;9.362;2024-02-04T01:20:56;4.00;;;3.80;;
46589;SDS011;32313;48.722;9.362;2024-02-04T01:23:22;4.43;;;4.23;;
46589;SDS011;32313;48.722;9.362;2024-02-04T01:25:48;4.00;;;3.70;;
46589;SDS011;32313;48.722;9.362;2024-02-04T01:28:13;4.43;;;4.23;;
46589;SDS011;32313;48.722;9.362;2024-02-04T01:30:39;4.00;;;3.80;;
46589;SDS011;32313;48.722;9.362;2024-02-04T01:33:05;3.90;;;3.70;;
46589;SDS011;32313;48.722;9.362;2024-02-04T01:35:32;4.27;;;4.07;;
46589;SDS011;32313;48.722;9.362;2024-02-04T01:37:58;4.53;;;4.23;;
46589;SDS011;32313;48.722;9.362;2024-02-04T01:40:23;4.10;;;3.90;;
46589;SDS011;32313;48.722;9.362;2024-02-04T01:42:49;4.33;;;4.10;;
46589;SDS011;32313;48.722;9.362;2024-02-04T01:45:15;4.30;;;4.10;;
46589;SDS011;32313;48.722;9.362;2024-02-04T01:47:40;4.60;;;4.33;;
46589;SDS011;32313;48.722;9.362;2024-02-04T01:50:06;4.10;;;3.83;;
46589;SDS011;32313;48.722;9.362;2024-02-04T01:52:33;4.50;;;4.30;;
46589;SDS011;32313;48.722;9.362;2024-02-04T01:55:03;4.87;;;4.63;;
46589;SDS011;32313;48.722;9.362;2024-02-04T01:57:31;4.27;;;3.97;;
46589;SDS011;32313;48.722;9.362;2024-02-04T01:59:57;4.60;;;4.40;;
46589;SDS011;32313;48.722;9.362;2024-02-04T02:02:23;4.80;;;4.50;;
46589;SDS011;32313;48.722;9.362;2024-02-04T02:04:50;5.13;;;4.83;;
46589;SDS011;32313;48.722;9.362;2024-02-04T02:07:17;5.03;;;4.73;;
46589;SDS011;32313;48.722;9.362;2024-02-04T02:09:46;4.73;;;4.43;;
46589;SDS011;32313;48.722;9.362;2024-02-04T02:12:34;4.17;;;3.87;;
46589;SDS011;32313;48.722;9.362;2024-02-04T02:15:29;4.10;;;3.90;;
46589;SDS011;32313;48.722;9.362;2024-02-04T02:20:33;4.93;;;4.63;;
46589;SDS011;32313;48.722;9.362;2024-02-04T02:23:08;4.33;;;4.13;;
46589;SDS011;32313;48.722;9.362;2024-02-04T02:25:39;5.00;;;4.70;;
46589;SDS011;32313;48.722;9.362;2024-02-04T02:28:06;4.43;;;4.17;;
46589;SDS011;32313;48.722;9.362;2024-02-04T02:30:32;4.80;;;4.50;;
46589;SDS011;32313;48.722;9.362;2024-02-04T02:33:00;3.80;;;3.60;;
46589;SDS011;32313;48.722;9.362;2024-02-04T02:35:26;4.30;;;4.10;;
46589;SDS011;32313;48.722;9.362;2024-02-04T02:37:57;4.17;;;3.87;;
46589;SDS011;32313;48.722;9.362;2024-02-04T02:40:30;4.17;;;3.97;;
46589;SDS011;32313;48.722;9.362;2024-02-04T02:43:06;4.20;;;4.00;;
46589;SDS011;32313;48.722;9.362;2024-02-04T02:45:35;3.80;;;3.60;;
46589;SDS011;32313;48.722;9.362;2024-02-04T02:48:07;3.90;;;3.70;;
46589;SDS011;32313;48.722;9.362;2024-02-04T02:50:35;4.10;;;3.90;;
46589;SDS011;32313;48.722;9.362;2024-02-04T02:53:01;4.10;;;3.90;;
46589;SDS011;32313;48.722;9.362;2024-02-04T02:55:27;4.63;;;4.43;;
46589;SDS011;32313;48.722;9.362;2024-02-04T02:57:53;4.10;;;3.90;;
46589;SDS011;32313;48.722;9.362;2024-02-04T03:00:18;3.83;;;3.63;;
46589;SDS011;32313;48.722;9.362;2024-02-04T03:02:44;4.40;;;4.20;;
46589;SDS011;32313;48.722;9.362;2024-02-04T03:05:11;4.17;;;3.93;;
46589;SDS011;32313;48.722;9.362;2024-02-04T03:07:37;4.27;;;4.07;;
46589;SDS011;32313;48.722;9.362;2024-02-04T03:10:03;3.70;;;3.50;;
46589;SDS011;32313;48.722;9.362;2024-02-04T03:12:29;4.20;;;3.80;;
46589;SDS011;32313;48.722;9.362;2024-02-04T03:14:55;3.90;;;3.70;;
46589;SDS011;32313;48.722;9.362;2024-02-04T03:17:21;5.50;;;5.10;;
46589;SDS011;32313;48.722;9.362;2024-02-04T03:19:48;4.47;;;4.17;;
46589;SDS011;32313;48.722;9.362;2024-02-04T03:22:16;4.00;;;3.80;;
46589;SDS011;32313;48.722;9.362;2024-02-04T03:24:43;3.97;;;3.77;;
46589;SDS011;32313;48.722;9.362;2024-02-04T03:27:09;4.23;;;4.03;;
46589;SDS011;32313;48.722;9.362;2024-02-04T03:29:35;3.80;;;3.60;;
46589;SDS011;32313;48.722;9.362;2024-02-04T03:32:01;3.90;;;3.70;;
46589;SDS011;32313;48.722;9.362;2024-02-04T03:34:27;4.10;;;3.90;;
46589;SDS011;32313;48.722;9.362;2024-02-04T03:36:53;3.90;;;3.70;;
46589;SDS011;32313;48.722;9.362;2024-02-04T03:39:20;3.70;;;3.50;;
46589;SDS011;32313;48.722;9.362;2024-02-04T03:41:45;3.80;;;3.60;;
46589;SDS011;32313;48.722;9.362;2024-02-04T03:44:11;3.97;;;3.77;;
46589;SDS011;32313;48.722;9.362;2024-02-04T03:46:37;3.87;;;3.57;;
46589;SDS011;32313;48.722;9.362;2024-02-04T03:49:05;4.30;;;4.00;;
46589;SDS011;32313;48.722;9.362;2024-02-04T03:51:34;3.67;;;3.50;;
46589;SDS011;32313;48.722;9.362;2024-02-04T03:54:00;4.10;;;3.90;;
46589;SDS011;32313;48.722;9.362;2024-02-04T03:56:26;4.37;;;4.17;;
46589;SDS011;32313;48.722;9.362;2024-02-04T03:58:51;4.07;;;3.87;;
46589;SDS011;32313;48.722;9.362;2024-02-04T04:01:17;3.90;;;3.70;;
46589;SDS011;32313;48.722;9.362;2024-02-04T04:03:42;4.60;;;4.17;;
46589;SDS011;32313;48.722;9.362;2024-02-04T04:06:09;3.77;;;3.57;;
46589;SDS011;32313;48.722;9.362;2024-02-04T04:08:35;4.10;;;3.90;;
46589;SDS011;32313;48.722;9.362;2024-02-04T04:11:01;3.80;;;3.60;;
46589;SDS011;32313;48.722;9.362;2024-02-04T04:13:27;4.40;;;4.20;;
46589;SDS011;32313;48.722;9.362;2024-02-04T04:15:53;3.80;;;3.60;;
46589;SDS011;32313;48.722;9.362;2024-02-04T04:18:19;4.63;;;4.33;;
46589;SDS011;32313;48.722;9.362;2024-02-04T04:20:45;4.00;;;3.70;;
46589;SDS011;32313;48.722;9.362;2024-02-04T04:23:11;3.60;;;3.40;;
46589;SDS011;32313;48.722;9.362;2024-02-04T04:25:37;3.90;;;3.70;;
46589;SDS011;32313;48.722;9.362;2024-02-04T04:28:03;3.63;;;3.43;;
46589;SDS011;32313;48.722;9.362;2024-02-04T04:30:29;4.07;;;3.87;;
46589;SDS011;32313;48.722;9.362;2024-02-04T04:32:55;4.07;;;3.87;;
46589;SDS011;32313;48.722;9.362;2024-02-04T04:35:21;4.00;;;3.80;;
46589;SDS011;32313;48.722;9.362;2024-02-04T04:37:47;3.67;;;3.47;;
46589;SDS011;32313;48.722;9.362;2024-02-04T04:40:12;4.13;;;3.93;;
46589;SDS011;32313;48.722;9.362;2024-02-04T04:42:38;3.90;;;3.70;;
46589;SDS011;32313;48.722;9.362;2024-02-04T04:45:04;4.13;;;3.93;;
46589;SDS011;32313;48.722;9.362;2024-02-04T04:47:30;3.90;;;3.70;;
46589;SDS011;32313;48.722;9.362;2024-02-04T04:49:56;3.90;;;3.70;;
46589;SDS011;32313;48.722;9.362;2024-02-04T04:52:21;3.97;;;3.77;;
46589;SDS011;32313;48.722;9.362;2024-02-04T04:54:47;3.87;;;3.67;;
46589;SDS011;32313;48.722;9.362;2024-02-04T04:57:13;4.00;;;3.80;;
46589;SDS011;32313;48.722;9.362;2024-02-04T04:59:39;3.93;;;3.73;;
46589;SDS011;32313;48.722;9.362;2024-02-04T05:02:05;4.17;;;3.83;;
46589;SDS011;32313;48.722;9.362;2024-02-04T05:04:30;3.73;;;3.53;;
46589;SDS011;32313;48.722;9.362;2024-02-04T05:06:56;4.20;;;4.00;;
46589;SDS011;32313;48.722;9.362;2024-02-04T05:09:22;3.93;;;3.73;;
46589;SDS011;32313;48.722;9.362;2024-02-04T05:11:47;4.27;;;3.97;;
46589;SDS011;32313;48.722;9.362;2024-02-04T05:14:13;3.80;;;3.50;;
46589;SDS011;32313;48.722;9.362;2024-02-04T05:16:39;3.80;;;3.60;;
46589;SDS011;32313;48.722;9.362;2024-02-04T05:19:05;3.63;;;3.43;;
46589;SDS011;32313;48.722;9.362;2024-02-04T05:21:30;3.57;;;3.37;;
46589;SDS011;32313;48.722;9.362;2024-02-04T05:23:56;4.03;;;3.83;;
46589;SDS011;32313;48.722;9.362;2024-02-04T05:26:21;3.73;;;3.53;;
46589;SDS011;32313;48.722;9.362;2024-02-04T05:28:47;4.10;;;3.90;;
46589;SDS011;32313;48.722;9.362;2024-02-04T05:31:13;3.70;;;3.50;;
46589;SDS011;32313;48.722;9.362;2024-02-04T05:33:39;3.70;;;3.50;;
46589;SDS011;32313;48.722;9.362;2024-02-04T05:36:04;3.53;;;3.33;;
46589;SDS011;32313;48.722;9.362;2024-02-04T05:38:30;3.77;;;3.57;;
46589;SDS011;32313;48.722;9.362;2024-02-04T05:40:56;3.80;;;3.60;;
46589;SDS011;32313;48.722;9.362;2024-02-04T05:43:21;4.43;;;4.17;;
46589;SDS011;32313;48.722;9.362;2024-02-04T05:45:47;3.73;;;3.53;;
46589;SDS011;32313;48.722;9.362;2024-02-04T05:48:13;3.40;;;3.30;;
46589;SDS011;32313;48.722;9.362;2024-02-04T05:50:38;3.60;;;3.40;;
46589;SDS011;32313;48.722;9.362;2024-02-04T05:53:04;3.30;;;3.20;;
46589;SDS011;32313;48.722;9.362;2024-02-04T05:55:30;4.00;;;3.80;;
46589;SDS011;32313;48.722;9.362;2024-02-04T05:57:56;3.30;;;3.20;;
46589;SDS011;32313;48.722;9.362;2024-02-04T06:00:22;3.80;;;3.60;;
46589;SDS011;32313;48.722;9.362;2024-02-04T06:02:48;3.60;;;3.40;;
46589;SDS011;32313;48.722;9.362;2024-02-04T06:05:14;3.77;;;3.57;;
46589;SDS011;32313;48.722;9.362;2024-02-04T06:07:42;3.87;;;3.67;;
46589;SDS011;32313;48.722;9.362;2024-02-04T06:10:11;3.60;;;3.40;;
46589;SDS011;32313;48.722;9.362;2024-02-04T06:12:37;3.70;;;3.50;;
46589;SDS011;32313;48.722;9.362;2024-02-04T06:15:11;4.33;;;4.13;;
46589;SDS011;32313;48.722;9.362;2024-02-04T06:17:37;3.80;;;3.60;;
46589;SDS011;32313;48.722;9.362;2024-02-04T06:20:03;3.40;;;3.20;;
46589;SDS011;32313;48.722;9.362;2024-02-04T06:22:29;4.10;;;3.90;;
46589;SDS011;32313;48.722;9.362;2024-02-04T06:24:55;4.00;;;3.80;;
46589;SDS011;32313;48.722;9.362;2024-02-04T06:27:20;3.50;;;3.30;;
46589;SDS011;32313;48.722;9.362;2024-02-04T06:29:46;4.73;;;4.33;;
46589;SDS011;32313;48.722;9.362;2024-02-04T06:32:12;3.50;;;3.30;;
46589;SDS011;32313;48.722;9.362;2024-02-04T06:34:38;3.40;;;3.30;;
46589;SDS011;32313;48.722;9.362;2024-02-04T06:37:04;3.73;;;3.53;;
46589;SDS011;32313;48.722;9.362;2024-02-04T06:39:30;4.00;;;3.70;;
46589;SDS011;32313;48.722;9.362;2024-02-04T06:41:55;3.87;;;3.67;;
46589;SDS011;32313;48.722;9.362;2024-02-04T06:44:21;3.47;;;3.37;;
46589;SDS011;32313;48.722;9.362;2024-02-04T06:46:46;3.80;;;3.60;;
46589;SDS011;32313;48.722;9.362;2024-02-04T06:49:13;3.37;;;3.27;;
46589;SDS011;32313;48.722;9.362;2024-02-04T06:51:43;4.20;;;4.00;;
46589;SDS011;32313;48.722;9.362;2024-02-04T06:54:09;3.80;;;3.60;;
46589;SDS011;32313;48.722;9.362;2024-02-04T06:56:35;3.47;;;3.27;;
46589;SDS011;32313;48.722;9.362;2024-02-04T06:59:02;3.33;;;3.13;;
46589;SDS011;32313;48.722;9.362;2024-02-04T07:01:27;3.97;;;3.77;;
46589;SDS011;32313;48.722;9.362;2024-02-04T07:03:53;3.60;;;3.50;;
46589;SDS011;32313;48.722;9.362;2024-02-04T07:06:19;3.50;;;3.30;;
46589;SDS011;32313;48.722;9.362;2024-02-04T07:08:45;3.50;;;3.30;;
46589;SDS011;32313;48.722;9.362;2024-02-04T07:11:11;4.23;;;4.03;;
46589;SDS011;32313;48.722;9.362;2024-02-04T07:13:36;3.80;;;3.60;;
46589;SDS011;32313;48.722;9.362;2024-02-04T07:16:02;3.70;;;3.50;;
46589;SDS011;32313;48.722;9.362;2024-02-04T07:18:28;3.93;;;3.63;;
46589;SDS011;32313;48.722;9.362;2024-02-04T07:20:54;3.80;;;3.50;;
46589;SDS011;32313;48.722;9.362;2024-02-04T07:23:19;3.77;;;3.57;;
46589;SDS011;32313;48.722;9.362;2024-02-04T07:25:46;3.73;;;3.53;;
46589;SDS011;32313;48.722;9.362;2024-02-04T07:28:12;3.70;;;3.40;;
46589;SDS011;32313;48.722;9.362;2024-02-04T07:30:37;3.63;;;3.43;;
46589;SDS011;32313;48.722;9.362;2024-02-04T07:33:03;3.53;;;3.33;;
46589;SDS011;32313;48.722;9.362;2024-02-04T07:35:29;3.70;;;3.50;;
46589;SDS011;32313;48.722;9.362;2024-02-04T07:37:56;3.50;;;3.30;;
46589;SDS011;32313;48.722;9.362;2024-02-04T07:40:22;3.70;;;3.40;;
46589;SDS011;32313;48.722;9.362;2024-02-04T07:42:47;3.60;;;3.40;;
46589;SDS011;32313;48.722;9.362;2024-02-04T07:45:13;3.60;;;3.40;;
46589;SDS011;32313;48.722;9.362;2024-02-04T07:47:39;3.70;;;3.50;;
46589;SDS011;32313;48.722;9.362;2024-02-04T07:50:04;3.87;;;3.67;;
46589;SDS011;32313;48.722;9.362;2024-02-04T07:52:31;3.33;;;3.23;;
46589;SDS011;32313;48.722;9.362;2024-02-04T07:54:56;3.27;;;3.10;;
46589;SDS011;32313;48.722;9.362;2024-02-04T07:57:22;3.30;;;3.10;;
46589;SDS011;32313;48.722;9.362;2024-02-04T07:59:47;3.03;;;2.93;;
46589;SDS011;32313;48.722;9.362;2024-02-04T08:02:13;3.63;;;3.43;;
46589;SDS011;32313;48.722;9.362;2024-02-04T08:04:42;3.50;;;3.30;;
46589;SDS011;32313;48.722;9.362;2024-02-04T08:07:08;4.27;;;3.37;;
46589;SDS011;32313;48.722;9.362;2024-02-04T08:09:33;3.13;;;3.03;;
46589;SDS011;32313;48.722;9.362;2024-02-04T08:11:59;3.17;;;3.07;;
46589;SDS011;32313;48.722;9.362;2024-02-04T08:14:25;3.77;;;3.57;;
46589;SDS011;32313;48.722;9.362;2024-02-04T08:16:50;3.73;;;3.43;;
46589;SDS011;32313;48.722;9.362;2024-02-04T08:19:16;3.60;;;3.40;;
46589;SDS011;32313;48.722;9.362;2024-02-04T08:21:42;3.57;;;3.27;;
46589;SDS011;32313;48.722;9.362;2024-02-04T08:24:07;4.03;;;3.73;;
46589;SDS011;32313;48.722;9.362;2024-02-04T08:26:34;3.50;;;3.30;;
46589;SDS011;32313;48.722;9.362;2024-02-04T08:28:59;3.20;;;3.00;;
46589;SDS011;32313;48.722;9.362;2024-02-04T08:31:25;3.23;;;3.10;;
46589;SDS011;32313;48.722;9.362;2024-02-04T08:33:51;3.00;;;2.90;;
46589;SDS011;32313;48.722;9.362;2024-02-04T08:36:18;2.90;;;2.80;;
46589;SDS011;32313;48.722;9.362;2024-02-04T08:38:45;2.90;;;2.80;;
46589;SDS011;32313;48.722;9.362;2024-02-04T08:41:11;3.23;;;3.03;;
46589;SDS011;32313;48.722;9.362;2024-02-04T08:43:37;3.00;;;2.83;;
46589;SDS011;32313;48.722;9.362;2024-02-04T08:46:03;3.27;;;2.97;;
46589;SDS011;32313;48.722;9.362;2024-02-04T08:48:30;2.80;;;2.60;;
46589;SDS011;32313;48.722;9.362;2024-02-04T08:50:56;3.17;;;2.97;;
46589;SDS011;32313;48.722;9.362;2024-02-04T08:53:21;2.80;;;2.70;;
46589;SDS011;32313;48.722;9.362;2024-02-04T08:55:48;3.53;;;3.33;;
46589;SDS011;32313;48.722;9.362;2024-02-04T08:58:14;3.80;;;3.60;;
46589;SDS011;32313;48.722;9.362;2024-02-04T09:00:40;2.93;;;2.83;;
46589;SDS011;32313;48.722;9.362;2024-02-04T09:03:06;3.17;;;2.90;;
46589;SDS011;32313;48.722;9.362;2024-02-04T09:05:32;3.37;;;3.13;;
46589;SDS011;32313;48.722;9.362;2024-02-04T09:07:58;3.27;;;3.07;;
46589;SDS011;32313;48.722;9.362;2024-02-04T09:10:23;3.07;;;2.97;;
46589;SDS011;32313;48.722;9.362;2024-02-04T09:12:49;3.20;;;3.00;;
46589;SDS011;32313;48.722;9.362;2024-02-04T09:15:15;3.13;;;2.93;;
46589;SDS011;32313;48.722;9.362;2024-02-04T09:17:40;3.43;;;3.23;;
46589;SDS011;32313;48.722;9.362;2024-02-04T09:20:06;3.47;;;3.10;;
46589;SDS011;32313;48.722;9.362;2024-02-04T09:22:32;2.80;;;2.70;;
46589;SDS011;32313;48.722;9.362;2024-02-04T09:24:58;3.40;;;3.20;;
46589;SDS011;32313;48.722;9.362;2024-02-04T09:27:24;3.50;;;3.30;;
46589;SDS011;32313;48.722;9.362;2024-02-04T09:29:50;3.20;;;3.10;;
46589;SDS011;32313;48.722;9.362;2024-02-04T09:32:16;3.40;;;3.10;;
46589;SDS011;32313;48.722;9.362;2024-02-04T09:34:42;3.00;;;2.90;;
46589;SDS011;32313;48.722;9.362;2024-02-04T09:37:08;3.40;;;3.27;;
46589;SDS011;32313;48.722;9.362;2024-02-04T09:39:34;3.00;;;2.90;;
46589;SDS011;32313;48.722;9.362;2024-02-04T09:41:59;3.30;;;3.10;;
46589;SDS011;32313;48.722;9.362;2024-02-04T09:44:26;2.90;;;2.80;;
46589;SDS011;32313;48.722;9.362;2024-02-04T09:46:52;3.10;;;2.90;;
46589;SDS011;32313;48.722;9.362;2024-02-04T09:49:19;3.10;;;2.90;;
46589;SDS011;32313;48.722;9.362;2024-02-04T09:51:46;2.87;;;2.73;;
46589;SDS011;32313;48.722;9.362;2024-02-04T09:54:13;3.43;;;3.23;;
46589;SDS011;32313;48.722;9.362;2024-02-04T09:56:41;3.13;;;2.80;;
46589;SDS011;32313;48.722;9.362;2024-02-04T09:59:07;3.20;;;3.00;;
46589;SDS011;32313;48.722;9.362;2024-02-04T10:01:33;3.27;;;3.00;;
46589;SDS011;32313;48.722;9.362;2024-02-04T10:04:00;5.33;;;2.90;;
46589;SDS011;32313;48.722;9.362;2024-02-04T10:06:26;2.63;;;2.53;;
46589;SDS011;32313;48.722;9.362;2024-02-04T10:08:52;3.17;;;2.97;;
46589;SDS011;32313;48.722;9.362;2024-02-04T10:11:18;2.77;;;2.67;;
46589;SDS011;32313;48.722;9.362;2024-02-04T10:16:13;3.20;;;3.00;;
46589;SDS011;32313;48.722;9.362;2024-02-04T10:18:43;2.80;;;2.60;;
46589;SDS011;32313;48.722;9.362;2024-02-04T10:21:17;2.90;;;2.70;;
46589;SDS011;32313;48.722;9.362;2024-02-04T10:23:44;2.77;;;2.67;;
46589;SDS011;32313;48.722;9.362;2024-02-04T10:26:14;2.60;;;2.50;;
46589;SDS011;32313;48.722;9.362;2024-02-04T10:28:40;2.50;;;2.40;;
46589;SDS011;32313;48.722;9.362;2024-02-04T10:31:09;2.40;;;2.30;;
46589;SDS011;32313;48.722;9.362;2024-02-04T10:33:36;2.50;;;2.30;;
46589;SDS011;32313;48.722;9.362;2024-02-04T10:36:02;2.67;;;2.57;;
46589;SDS011;32313;48.722;9.362;2024-02-04T10:38:28;2.87;;;2.57;;
46589;SDS011;32313;48.722;9.362;2024-02-04T10:40:56;2.70;;;2.60;;
46589;SDS011;32313;48.722;9.362;2024-02-04T10:43:26;3.03;;;2.83;;
46589;SDS011;32313;48.722;9.362;2024-02-04T10:45:59;2.73;;;2.63;;
46589;SDS011;32313;48.722;9.362;2024-02-04T10:48:33;2.60;;;2.50;;
46589;SDS011;32313;48.722;9.362;2024-02-04T10:51:07;2.70;;;2.60;;
46589;SDS011;32313;48.722;9.362;2024-02-04T10:53:42;2.63;;;2.43;;
46589;SDS011;32313;48.722;9.362;2024-02-04T10:56:13;2.80;;;2.60;;
46589;SDS011;32313;48.722;9.362;2024-02-04T10:58:44;2.53;;;2.43;;
46589;SDS011;32313;48.722;9.362;2024-02-04T11:01:12;2.30;;;2.20;;
46589;SDS011;32313;48.722;9.362;2024-02-04T11:03:39;2.50;;;2.30;;
46589;SDS011;32313;48.722;9.362;2024-02-04T11:06:06;2.37;;;2.27;;
46589;SDS011;32313;48.722;9.362;2024-02-04T11:08:34;2.10;;;2.00;;
46589;SDS011;32313;48.722;9.362;2024-02-04T11:11:00;2.50;;;2.30;;
46589;SDS011;32313;48.722;9.362;2024-02-04T11:13:26;2.17;;;1.97;;
46589;SDS011;32313;48.722;9.362;2024-02-04T11:15:54;2.20;;;2.10;;
46589;SDS011;32313;48.722;9.362;2024-02-04T11:18:35;2.10;;;2.00;;
46589;SDS011;32313;48.722;9.362;2024-02-04T11:21:31;2.20;;;2.10;;
46589;SDS011;32313;48.722;9.362;2024-02-04T11:24:08;2.43;;;2.33;;
46589;SDS011;32313;48.722;9.362;2024-02-04T11:26:44;2.20;;;2.10;;
46589;SDS011;32313;48.722;9.362;2024-02-04T11:29:11;2.10;;;2.00;;
46589;SDS011;32313;48.722;9.362;2024-02-04T11:31:38;2.10;;;2.00;;
46589;SDS011;32313;48.722;9.362;2024-02-04T11:34:05;2.03;;;1.93;;
46589;SDS011;32313;48.722;9.362;2024-02-04T11:36:37;2.40;;;2.30;;
46589;SDS011;32313;48.722;9.362;2024-02-04T11:39:14;3.57;;;2.10;;
46589;SDS011;32313;48.722;9.362;2024-02-04T11:41:46;2.60;;;2.50;;
46589;SDS011;32313;48.722;9.362;2024-02-04T11:44:12;1.97;;;1.87;;
46589;SDS011;32313;48.722;9.362;2024-02-04T11:46:48;2.10;;;2.00;;
46589;SDS011;32313;48.722;9.362;2024-02-04T11:49:15;2.30;;;2.20;;
46589;SDS011;32313;48.722;9.362;2024-02-04T11:51:46;2.50;;;1.90;;
46589;SDS011;32313;48.722;9.362;2024-02-04T11:54:14;2.10;;;2.00;;
46589;SDS011;32313;48.722;9.362;2024-02-04T11:56:41;1.97;;;1.97;;
46589;SDS011;32313;48.722;9.362;2024-02-04T11:59:09;2.10;;;2.00;;
46589;SDS011;32313;48.722;9.362;2024-02-04T12:01:36;2.30;;;2.10;;
46589;SDS011;32313;48.722;9.362;2024-02-04T12:04:35;2.40;;;2.30;;
46589;SDS011;32313;48.722;9.362;2024-02-04T12:06:54;2.53;;;2.43;;
46589;SDS011;32313;48.722;9.362;2024-02-04T12:09:21;2.03;;;1.93;;
46589;SDS011;32313;48.722;9.362;2024-02-04T12:11:47;2.87;;;2.67;;
46589;SDS011;32313;48.722;9.362;2024-02-04T12:14:13;2.13;;;2.03;;
46589;SDS011;32313;48.722;9.362;2024-02-04T12:16:40;2.10;;;2.00;;
46589;SDS011;32313;48.722;9.362;2024-02-04T12:19:06;2.10;;;2.00;;
46589;SDS011;32313;48.722;9.362;2024-02-04T12:21:32;2.20;;;1.70;;
46589;SDS011;32313;48.722;9.362;2024-02-04T12:23:58;3.60;;;2.23;;
46589;SDS011;32313;48.722;9.362;2024-02-04T12:26:24;1.90;;;1.80;;
46589;SDS011;32313;48.722;9.362;2024-02-04T12:28:51;2.00;;;1.90;;
46589;SDS011;32313;48.722;9.362;2024-02-04T12:31:17;2.40;;;2.30;;
46589;SDS011;32313;48.722;9.362;2024-02-04T12:33:53;2.70;;;2.50;;
46589;SDS011;32313;48.722;9.362;2024-02-04T12:36:23;3.77;;;3.47;;
46589;SDS011;32313;48.722;9.362;2024-02-04T12:38:52;3.23;;;3.03;;
46589;SDS011;32313;48.722;9.362;2024-02-04T12:41:21;4.30;;;3.90;;
46589;SDS011;32313;48.722;9.362;2024-02-04T12:43:54;3.30;;;3.00;;
46589;SDS011;32313;48.722;9.362;2024-02-04T12:46:21;3.53;;;3.23;;
46589;SDS011;32313;48.722;9.362;2024-02-04T12:48:54;3.20;;;3.00;;
46589;SDS011;32313;48.722;9.362;2024-02-04T12:51:28;3.60;;;3.30;;
46589;SDS011;32313;48.722;9.362;2024-02-04T12:54:10;3.67;;;2.87;;
46589;SDS011;32313;48.722;9.362;2024-02-04T12:56:45;2.70;;;2.50;;
46589;SDS011;32313;48.722;9.362;2024-02-04T12:59:28;3.43;;;3.13;;
46589;SDS011;32313;48.722;9.362;2024-02-04T13:01:56;2.43;;;2.23;;
46589;SDS011;32313;48.722;9.362;2024-02-04T13:04:38;2.07;;;1.90;;
46589;SDS011;32313;48.722;9.362;2024-02-04T13:07:11;2.87;;;2.57;;
46589;SDS011;32313;48.722;9.362;2024-02-04T13:09:40;1.90;;;1.80;;
46589;SDS011;32313;48.722;9.362;2024-02-04T13:12:06;2.03;;;1.80;;
46589;SDS011;32313;48.722;9.362;2024-02-04T13:14:37;1.90;;;1.80;;
46589;SDS011;32313;48.722;9.362;2024-02-04T13:17:06;1.70;;;1.60;;
46589;SDS011;32313;48.722;9.362;2024-02-04T13:19:35;1.73;;;1.60;;
46589;SDS011;32313;48.722;9.362;2024-02-04T13:22:04;1.83;;;1.50;;
46589;SDS011;32313;48.722;9.362;2024-02-04T13:24:31;1.83;;;1.70;;
46589;SDS011;32313;48.722;9.362;2024-02-04T13:26:57;2.27;;;1.60;;
46589;SDS011;32313;48.722;9.362;2024-02-04T13:29:24;1.67;;;1.57;;
46589;SDS011;32313;48.722;9.362;2024-02-04T13:31:49;1.60;;;1.50;;
46589;SDS011;32313;48.722;9.362;2024-02-04T13:34:15;1.90;;;1.80;;
46589;SDS011;32313;48.722;9.362;2024-02-04T13:36:41;1.90;;;1.80;;
46589;SDS011;32313;48.722;9.362;2024-02-04T13:39:08;4.30;;;1.80;;
46589;SDS011;32313;48.722;9.362;2024-02-04T13:41:34;1.80;;;1.60;;
46589;SDS011;32313;48.722;9.362;2024-02-04T13:44:01;1.63;;;1.60;;
46589;SDS011;32313;48.722;9.362;2024-02-04T13:46:27;3.60;;;2.00;;
46589;SDS011;32313;48.722;9.362;2024-02-04T13:48:52;1.70;;;1.60;;
46589;SDS011;32313;48.722;9.362;2024-02-04T13:51:18;2.77;;;1.97;;
46589;SDS011;32313;48.722;9.362;2024-02-04T13:53:44;1.77;;;1.67;;
46589;SDS011;32313;48.722;9.362;2024-02-04T13:56:09;2.10;;;2.00;;
46589;SDS011;32313;48.722;9.362;2024-02-04T13:58:35;1.80;;;1.80;;
46589;SDS011;32313;48.722;9.362;2024-02-04T14:01:01;1.90;;;1.80;;
46589;SDS011;32313;48.722;9.362;2024-02-04T14:03:26;2.00;;;1.90;;
46589;SDS011;32313;48.722;9.362;2024-02-04T14:05:52;1.80;;;1.70;;
46589;SDS011;32313;48.722;9.362;2024-02-04T14:08:20;2.10;;;2.00;;
46589;SDS011;32313;48.722;9.362;2024-02-04T14:10:47;2.00;;;1.90;;
46589;SDS011;32313;48.722;9.362;2024-02-04T14:13:13;1.80;;;1.70;;
46589;SDS011;32313;48.722;9.362;2024-02-04T14:15:38;2.00;;;1.90;;
46589;SDS011;32313;48.722;9.362;2024-02-04T14:18:05;1.90;;;1.80;;
46589;SDS011;32313;48.722;9.362;2024-02-04T14:20:31;2.00;;;1.90;;
46589;SDS011;32313;48.722;9.362;2024-02-04T14:22:57;2.10;;;2.00;;
46589;SDS011;32313;48.722;9.362;2024-02-04T14:25:23;1.87;;;1.77;;
46589;SDS011;32313;48.722;9.362;2024-02-04T14:27:52;2.00;;;1.90;;
46589;SDS011;32313;48.722;9.362;2024-02-04T14:30:18;2.00;;;1.90;;
46589;SDS011;32313;48.722;9.362;2024-02-04T14:32:43;3.17;;;2.20;;
46589;SDS011;32313;48.722;9.362;2024-02-04T14:35:09;2.20;;;2.10;;
46589;SDS011;32313;48.722;9.362;2024-02-04T14:37:38;2.10;;;1.90;;
46589;SDS011;32313;48.722;9.362;2024-02-04T14:40:08;2.13;;;2.03;;
46589;SDS011;32313;48.722;9.362;2024-02-04T14:42:34;2.20;;;2.10;;
46589;SDS011;32313;48.722;9.362;2024-02-04T14:44:59;2.10;;;2.00;;
46589;SDS011;32313;48.722;9.362;2024-02-04T14:47:26;2.23;;;2.13;;
46589;SDS011;32313;48.722;9.362;2024-02-04T14:49:52;2.43;;;2.30;;
46589;SDS011;32313;48.722;9.362;2024-02-04T14:52:18;2.20;;;2.10;;